Time;durP1;ratioP1;P1;durP2;ratioP2;P2;SDS_P1;SDS_P2;PMS_P1;PMS_P2;Temp;Humidity;BMP_temperature;BMP_pressure;BME280_temperature;BME280_humidity;BME280_pressure;Samples;Min_cycle;Max_cycle;Signal;HPM_P1;HPM_P2
2023/06/02 00:09:53;;;;;;;7.7;4.4;;;;;;;12.1;70.8;98360;;;;
2023/06/02 00:19:56;;;;;;;7.7;4.4;;;;;;;12.2;71.4;98390;;;;
2023/06/02 00:30:53;;;;;;;10;4.8;;;;;;;11.9;74;98370;;;;
2023/06/02 00:41:52;;;;;;;10;4.8;;;;;;;12.1;73.6;98370;;;;
2023/06/02 00:51:53;;;;;;;10;4.8;;;;;;;12;72.1;98370;;;;
2023/06/02 01:02:52;;;;;;;11.2;6.1;;;;;;;11.8;73;98380;;;;
2023/06/02 01:13:53;;;;;;;11.2;6.1;;;;;;;11.6;72.9;98370;;;;
2023/06/02 01:23:53;;;;;;;11.2;6.1;;;;;;;11.4;73.2;98380;;;;
2023/06/02 01:33:53;;;;;;;8.8;5;;;;;;;11.2;74.5;98370;;;;
2023/06/02 01:43:52;;;;;;;8.8;5;;;;;;;11.2;76.2;98370;;;;
2023/06/02 01:53:53;;;;;;;8.8;5;;;;;;;11.4;78.1;98370;;;;
2023/06/02 02:04:53;;;;;;;12.4;6.2;;;;;;;11.6;78.4;98380;;;;
2023/06/02 02:14:56;;;;;;;12.4;6.2;;;;;;;11.7;77.6;98380;;;;
2023/06/02 02:25:53;;;;;;;10.6;6.2;;;;;;;11.5;76.2;98400;;;;
2023/06/02 02:35:53;;;;;;;10.6;6.2;;;;;;;11.2;76.4;98400;;;;
2023/06/02 02:45:53;;;;;;;10.6;6.2;;;;;;;10.9;79.6;98410;;;;
2023/06/02 02:56:53;;;;;;;10.6;6.5;;;;;;;11;78.3;98410;;;;
2023/06/02 03:06:53;;;;;;;10.6;6.5;;;;;;;11.1;78.6;98420;;;;
2023/06/02 03:16:53;;;;;;;10.6;6.5;;;;;;;11.1;78.2;98420;;;;
2023/06/02 03:27:53;;;;;;;12.3;6;;;;;;;11.2;78.2;98430;;;;
2023/06/02 03:37:53;;;;;;;12.3;6;;;;;;;11.6;77.6;98450;;;;
2023/06/02 03:48:53;;;;;;;12.3;6;;;;;;;11.9;77.5;98460;;;;
2023/06/02 03:58:53;;;;;;;10.7;6.6;;;;;;;12.2;76.5;98470;;;;
2023/06/02 04:08:53;;;;;;;10.7;6.6;;;;;;;12.5;75.5;98470;;;;
2023/06/02 04:18:53;;;;;;;10.7;6.6;;;;;;;12.8;74.5;98480;;;;
2023/06/02 04:29:53;;;;;;;12.2;6.6;;;;;;;13.1;74.1;98500;;;;
2023/06/02 04:39:55;;;;;;;12.2;6.6;;;;;;;13.4;73.7;98490;;;;
2023/06/02 04:49:53;;;;;;;12.2;6.6;;;;;;;13.6;73.6;98500;;;;
2023/06/02 05:00:53;;;;;;;17.3;11.7;;;;;;;14.1;72;98500;;;;
2023/06/02 05:10:53;;;;;;;17.3;11.7;;;;;;;14.3;71.4;98500;;;;
2023/06/02 05:20:53;;;;;;;17.3;11.7;;;;;;;14.7;70.7;98490;;;;
2023/06/02 05:31:53;;;;;;;18.8;12.2;;;;;;;15;69.9;98500;;;;
2023/06/02 05:41:53;;;;;;;18.8;12.2;;;;;;;15.3;69.5;98500;;;;
2023/06/02 05:51:53;;;;;;;18.8;12.2;;;;;;;15.8;67.7;98510;;;;
2023/06/02 06:02:53;;;;;;;20.4;13.2;;;;;;;16.2;66.3;98510;;;;
2023/06/02 06:13:53;;;;;;;20.4;13.2;;;;;;;16.6;65.7;98520;;;;
2023/06/02 06:23:53;;;;;;;20.4;13.2;;;;;;;16.7;64.4;98520;;;;
2023/06/02 06:33:53;;;;;;;22.6;13.1;;;;;;;17;63.9;98520;;;;
2023/06/02 06:43:53;;;;;;;22.6;13.1;;;;;;;17.3;61.9;98530;;;;
2023/06/02 06:54:53;;;;;;;22.6;13.1;;;;;;;17.5;60.3;98530;;;;
2023/06/02 07:04:53;;;;;;;16.9;10.5;;;;;;;17.7;58.1;98540;;;;
2023/06/02 07:15:53;;;;;;;16.9;10.5;;;;;;;17.8;57.3;98550;;;;
2023/06/02 07:25:53;;;;;;;15.5;8.9;;;;;;;18.1;57.3;98550;;;;
2023/06/02 07:35:53;;;;;;;15.5;8.9;;;;;;;18.4;56.8;98540;;;;
2023/06/02 07:46:53;;;;;;;15.5;8.9;;;;;;;18.5;54.6;98540;;;;
2023/06/02 07:56:53;;;;;;;14.8;8;;;;;;;18.6;53.8;98550;;;;
2023/06/02 08:06:54;;;;;;;14.8;8;;;;;;;18.9;53.9;98550;;;;
2023/06/02 08:17:53;;;;;;;14.8;8;;;;;;;18.8;52.8;98550;;;;
2023/06/02 08:27:53;;;;;;;14.2;8.2;;;;;;;19;51.9;98550;;;;
2023/06/02 08:38:53;;;;;;;14.2;8.2;;;;;;;19.3;52.4;98560;;;;
2023/06/02 08:49:53;;;;;;;14.2;8.2;;;;;;;19.2;51.8;98550;;;;
2023/06/02 09:00:53;;;;;;;11.4;7;;;;;;;19.3;51.4;98550;;;;
2023/06/02 09:10:53;;;;;;;11.4;7;;;;;;;19.6;50.5;98550;;;;
2023/06/02 09:20:53;;;;;;;11.4;7;;;;;;;20.1;49.9;98550;;;;
2023/06/02 09:31:53;;;;;;;11.5;6.3;;;;;;;20.5;51;98540;;;;
2023/06/02 09:42:53;;;;;;;11.5;6.3;;;;;;;20.9;50.3;98540;;;;
2023/06/02 09:52:53;;;;;;;11.5;6.3;;;;;;;20.9;47.4;98540;;;;
2023/06/02 10:03:53;;;;;;;17.5;6.9;;;;;;;21.1;46.7;98540;;;;
2023/06/02 10:14:53;;;;;;;17.5;6.9;;;;;;;21.3;47.4;98540;;;;
2023/06/02 10:24:53;;;;;;;17.5;6.9;;;;;;;21.6;47;98540;;;;
2023/06/02 10:34:53;;;;;;;12.7;6;;;;;;;21.8;47.1;98560;;;;
2023/06/02 10:44:54;;;;;;;12.7;6;;;;;;;21.6;46.4;98560;;;;
2023/06/02 10:55:53;;;;;;;10.9;6.7;;;;;;;21.4;47.3;98570;;;;
2023/06/02 11:05:54;;;;;;;10.9;6.7;;;;;;;21.4;47.3;98570;;;;
2023/06/02 11:16:53;;;;;;;9;4.7;;;;;;;21.4;45.6;98570;;;;
2023/06/02 11:26:53;;;;;;;9;4.7;;;;;;;21.5;47.7;98570;;;;
2023/06/02 11:37:53;;;;;;;9;4.7;;;;;;;22;45;98560;;;;
2023/06/02 11:47:53;;;;;;;12.7;5.6;;;;;;;21.7;44.2;98570;;;;
2023/06/02 11:58:53;;;;;;;12.7;5.6;;;;;;;21.8;45.4;98570;;;;
2023/06/02 12:08:53;;;;;;;12.7;5.6;;;;;;;21.3;44.8;98570;;;;
2023/06/02 12:18:53;;;;;;;10;4.6;;;;;;;21.3;44.7;98570;;;;
2023/06/02 12:28:53;;;;;;;10;4.6;;;;;;;21.6;46.3;98570;;;;
2023/06/02 12:38:53;;;;;;;10;4.6;;;;;;;21.3;45.2;98570;;;;
2023/06/02 12:49:53;;;;;;;8.1;4.6;;;;;;;21.3;45;98570;;;;
2023/06/02 12:59:53;;;;;;;8.1;4.6;;;;;;;21.6;44;98570;;;;
2023/06/02 13:09:53;;;;;;;8.1;4.6;;;;;;;21;44.5;98570;;;;
2023/06/02 13:20:54;;;;;;;12.4;5.4;;;;;;;21.1;43.6;98570;;;;
2023/06/02 13:31:53;;;;;;;12.4;5.4;;;;;;;20.6;45.2;98580;;;;
2023/06/02 13:41:53;;;;;;;12.4;5.4;;;;;;;20.6;44.8;98590;;;;
2023/06/02 13:51:53;;;;;;;11.1;5;;;;;;;20.2;45.4;98600;;;;
2023/06/02 14:01:53;;;;;;;11.1;5;;;;;;;20.3;44;98610;;;;
2023/06/02 14:11:53;;;;;;;11.1;5;;;;;;;19.6;44.3;98620;;;;
2023/06/02 14:22:53;;;;;;;8;4.1;;;;;;;19.6;44.2;98620;;;;
2023/06/02 14:32:53;;;;;;;8;4.1;;;;;;;20;42.6;98630;;;;
2023/06/02 14:43:53;;;;;;;8;4.1;;;;;;;19.5;43.4;98640;;;;
2023/06/02 14:53:53;;;;;;;10.7;5.4;;;;;;;19.1;47.3;98660;;;;
2023/06/02 15:03:53;;;;;;;10.7;5.4;;;;;;;18.9;49.3;98680;;;;
2023/06/02 15:13:53;;;;;;;10.7;5.4;;;;;;;18.4;50.7;98700;;;;
2023/06/02 15:24:53;;;;;;;11.3;5.9;;;;;;;18.6;49.6;98700;;;;
2023/06/02 15:35:53;;;;;;;11.3;5.9;;;;;;;18.7;51.1;98710;;;;
2023/06/02 15:45:53;;;;;;;16;11.5;;;;;;;18.4;51.9;98720;;;;
2023/06/02 15:55:53;;;;;;;16;11.5;;;;;;;17.5;52.9;98730;;;;
2023/06/02 16:05:53;;;;;;;16;11.5;;;;;;;17.4;53;98740;;;;
2023/06/02 16:15:54;;;;;;;20.1;13.9;;;;;;;17.1;54;98750;;;;
2023/06/02 16:26:53;;;;;;;20.1;13.9;;;;;;;17.1;53.8;98750;;;;
2023/06/02 16:36:53;;;;;;;20.1;13.9;;;;;;;16.8;54.5;98760;;;;
2023/06/02 16:47:53;;;;;;;;;;;;;;;16.6;54.8;98780;;;;
2023/06/02 16:57:53;;;;;;;10.5;4.8;;;;;;;16.5;54.7;98780;;;;
2023/06/02 17:07:53;;;;;;;10.5;4.8;;;;;;;17.5;52;98790;;;;
2023/06/02 17:18:53;;;;;;;10.5;4.8;;;;;;;16.8;53.6;98800;;;;
2023/06/02 17:29:53;;;;;;;9.2;4.4;;;;;;;16;55.4;98820;;;;
2023/06/02 17:39:54;;;;;;;9.2;4.4;;;;;;;15.9;56;98840;;;;
2023/06/02 17:50:53;;;;;;;9.2;4.4;;;;;;;15.2;59.1;98860;;;;
2023/06/02 18:01:53;;;;;;;9.9;5;;;;;;;15.2;60.5;98880;;;;
2023/06/02 18:12:57;;;;;;;9.9;5;;;;;;;14.4;62;98890;;;;
2023/06/02 18:22:54;;;;;;;9.9;5;;;;;;;13.9;65.1;98920;;;;
2023/06/02 18:33:53;;;;;;;11.3;5.4;;;;;;;13.5;67.4;98940;;;;
2023/06/02 18:43:53;;;;;;;11.3;5.4;;;;;;;13;68.3;98970;;;;
2023/06/02 18:53:53;;;;;;;11.3;5.4;;;;;;;12.7;68.4;98970;;;;
2023/06/02 19:03:53;;;;;;;6.8;3.5;;;;;;;12.4;67.8;98990;;;;
2023/06/02 19:14:53;;;;;;;6.8;3.5;;;;;;;12.2;68.5;99010;;;;
2023/06/02 19:24:54;;;;;;;6.8;3.5;;;;;;;12.1;68.8;99020;;;;
2023/06/02 19:34:53;;;;;;;4.8;1.3;;;;;;;12;67.6;99030;;;;
2023/06/02 19:45:53;;;;;;;4.8;1.3;;;;;;;11.9;68.5;99040;;;;
2023/06/02 19:55:53;;;;;;;4;1.7;;;;;;;11.8;68.6;99050;;;;
2023/06/02 20:06:53;;;;;;;4;1.7;;;;;;;11.7;69.2;99050;;;;
2023/06/02 20:16:53;;;;;;;4;1.7;;;;;;;11.6;69.8;99060;;;;
2023/06/02 20:26:53;;;;;;;3.5;1.7;;;;;;;11.6;70.1;99070;;;;
2023/06/02 20:37:53;;;;;;;3.5;1.7;;;;;;;11.6;69.8;99090;;;;
2023/06/02 20:48:54;;;;;;;3.5;1.7;;;;;;;11.6;69.1;99080;;;;
2023/06/02 20:58:53;;;;;;;2.7;1.6;;;;;;;11.6;69.2;99090;;;;
2023/06/02 21:09:53;;;;;;;2.7;1.6;;;;;;;11.4;69.7;99090;;;;
2023/06/02 21:19:53;;;;;;;2.7;1.6;;;;;;;11.2;69.5;99100;;;;
2023/06/02 21:29:53;;;;;;;4.2;1.8;;;;;;;11.1;69.4;99100;;;;
2023/06/02 21:40:53;;;;;;;4.2;1.8;;;;;;;10.8;71.4;99100;;;;
2023/06/02 21:50:53;;;;;;;4.2;1.8;;;;;;;10.5;71.6;99100;;;;
2023/06/02 22:01:53;;;;;;;5.5;1.4;;;;;;;10.1;73.7;99100;;;;
2023/06/02 22:11:53;;;;;;;5.5;1.4;;;;;;;9.8;74.5;99100;;;;
2023/06/02 22:21:53;;;;;;;5.5;1.4;;;;;;;9.5;75.2;99110;;;;
2023/06/02 22:32:53;;;;;;;5;2.3;;;;;;;9.3;76.3;99110;;;;
2023/06/02 22:42:53;;;;;;;5;2.3;;;;;;;9;76.9;99110;;;;
2023/06/02 22:52:53;;;;;;;5;2.3;;;;;;;8.8;77.9;99110;;;;
2023/06/02 23:03:53;;;;;;;6.2;2.5;;;;;;;8.4;77.3;99110;;;;
2023/06/02 23:13:53;;;;;;;6.2;2.5;;;;;;;8;78.2;99120;;;;
2023/06/02 23:24:53;;;;;;;6.2;2.5;;;;;;;7.8;80.7;99130;;;;
2023/06/02 23:34:58;;;;;;;7.2;2.4;;;;;;;7.6;81.4;99130;;;;
2023/06/02 23:44:53;;;;;;;7.2;2.4;;;;;;;7.5;83;99140;;;;
2023/06/02 23:54:53;;;;;;;7.2;2.4;;;;;;;7.3;82.9;99140;;;;
